createdAt,value
2019-02-05T00:01:07.055Z,8.63
2019-02-05T00:03:39.470Z,8.43
2019-02-05T00:06:15.600Z,8.00
2019-02-05T00:08:46.094Z,8.07
2019-02-05T00:11:16.711Z,8.07
2019-02-05T00:13:47.259Z,8.20
2019-02-05T00:16:17.610Z,8.30
2019-02-05T00:18:48.400Z,8.10
2019-02-05T00:21:20.537Z,7.90
2019-02-05T00:23:51.110Z,7.60
2019-02-05T00:26:21.856Z,7.90
2019-02-05T00:29:01.570Z,8.23
2019-02-05T00:31:32.239Z,8.00
2019-02-05T00:34:04.488Z,7.17
2019-02-05T00:36:35.121Z,7.83
2019-02-05T00:39:07.737Z,7.77
2019-02-05T00:41:38.427Z,7.37
2019-02-05T00:44:09.018Z,7.63
2019-02-05T00:46:42.571Z,7.93
2019-02-05T00:49:13.217Z,7.90
2019-02-05T00:51:43.821Z,8.17
2019-02-05T00:54:15.999Z,7.87
2019-02-05T00:56:46.652Z,8.13
2019-02-05T00:59:18.156Z,7.73
2019-02-05T01:01:48.815Z,7.70
2019-02-05T01:04:19.113Z,8.17
2019-02-05T01:06:49.759Z,7.80
2019-02-05T01:09:20.406Z,7.37
2019-02-05T01:11:51.342Z,7.93
2019-02-05T01:14:21.603Z,8.13
2019-02-05T01:16:52.210Z,8.07
2019-02-05T01:19:22.727Z,7.83
2019-02-05T01:21:54.428Z,7.27
2019-02-05T01:24:25.349Z,8.23
2019-02-05T01:26:56.055Z,7.80
2019-02-05T01:29:26.668Z,7.97
2019-02-05T01:31:57.209Z,7.60
2019-02-05T01:34:27.885Z,7.23
2019-02-05T01:36:59.062Z,8.10
2019-02-05T01:39:29.619Z,7.73
2019-02-05T01:41:59.845Z,7.20
2019-02-05T01:44:30.477Z,7.30
2019-02-05T01:47:01.096Z,6.90
2019-02-05T01:49:34.686Z,7.60
2019-02-05T01:52:05.345Z,7.30
2019-02-05T01:54:37.644Z,7.33
2019-02-05T01:57:07.995Z,7.43
2019-02-05T01:59:38.567Z,7.03
2019-02-05T02:02:09.227Z,7.17
2019-02-05T02:04:39.828Z,7.40
2019-02-05T02:07:10.567Z,7.57
2019-02-05T02:09:41.188Z,7.43
2019-02-05T02:12:11.557Z,7.87
2019-02-05T02:14:42.137Z,7.03
2019-02-05T02:17:17.776Z,7.53
2019-02-05T02:19:48.101Z,7.37
2019-02-05T02:22:18.427Z,7.10
2019-02-05T02:24:48.976Z,6.97
2019-02-05T02:27:19.627Z,6.43
2019-02-05T02:29:50.867Z,6.70
2019-02-05T02:32:21.386Z,7.00
2019-02-05T02:34:52.019Z,6.93
2019-02-05T02:37:22.650Z,6.97
2019-02-05T02:39:53.188Z,6.97
2019-02-05T02:42:23.817Z,6.83
2019-02-05T02:44:54.436Z,7.30
2019-02-05T02:47:27.751Z,7.53
2019-02-05T02:50:00.233Z,7.00
2019-02-05T02:52:30.920Z,7.23
2019-02-05T02:55:04.348Z,7.00
2019-02-05T02:57:36.626Z,7.23
2019-02-05T03:00:10.527Z,7.40
2019-02-05T03:02:41.558Z,6.80
2019-02-05T03:05:14.044Z,6.57
2019-02-05T03:07:44.691Z,7.13
2019-02-05T03:10:27.065Z,6.67
2019-02-05T03:12:59.451Z,6.67
2019-02-05T03:15:30.069Z,6.67
2019-02-05T03:18:02.251Z,6.73
2019-02-05T03:20:33.083Z,7.03
2019-02-05T03:23:03.710Z,7.37
2019-02-05T03:25:34.239Z,7.00
2019-02-05T03:28:04.764Z,6.60
2019-02-05T03:30:35.305Z,6.70
2019-02-05T03:33:05.953Z,6.60
2019-02-05T03:35:36.572Z,7.33
2019-02-05T03:38:07.175Z,6.50
2019-02-05T03:40:59.560Z,6.80
2019-02-05T03:43:30.170Z,6.13
2019-02-05T03:46:00.715Z,7.10
2019-02-05T03:48:31.324Z,6.57
2019-02-05T03:51:08.212Z,6.73
2019-02-05T03:53:45.265Z,6.83
2019-02-05T03:56:31.102Z,6.87
2019-02-05T03:59:21.673Z,6.77
2019-02-05T04:02:16.894Z,6.37
2019-02-05T04:05:02.907Z,6.17
2019-02-05T04:07:42.599Z,6.70
2019-02-05T04:10:34.417Z,6.77
2019-02-05T04:13:23.314Z,6.47
2019-02-05T04:16:18.007Z,6.60
2019-02-05T04:19:09.749Z,6.53
2019-02-05T04:21:49.601Z,6.67
2019-02-05T04:24:30.404Z,6.43
2019-02-05T04:27:07.119Z,6.53
2019-02-05T04:29:49.731Z,6.30
2019-02-05T04:32:35.624Z,6.87
2019-02-05T04:35:41.171Z,6.70
2019-02-05T04:38:38.840Z,6.90
2019-02-05T04:41:33.193Z,7.20
2019-02-05T04:44:15.858Z,6.87
2019-02-05T04:47:09.338Z,7.50
2019-02-05T04:50:10.268Z,7.60
2019-02-05T04:53:01.980Z,7.20
2019-02-05T04:55:50.649Z,7.80
2019-02-05T04:58:33.264Z,7.53
2019-02-05T05:01:13.294Z,7.33
2019-02-05T05:03:52.838Z,7.90
2019-02-05T05:06:38.750Z,7.67
2019-02-05T05:09:24.618Z,7.37
2019-02-05T05:11:55.271Z,7.57
2019-02-05T05:14:25.591Z,7.40
2019-02-05T05:16:57.486Z,7.77
2019-02-05T05:19:28.058Z,7.87
2019-02-05T05:21:58.803Z,11.00
2019-02-05T05:24:29.445Z,12.43
2019-02-05T05:27:00.074Z,7.63
2019-02-05T05:29:33.109Z,7.47
2019-02-05T05:32:02.974Z,7.93
2019-02-05T05:34:33.615Z,7.40
2019-02-05T05:37:03.335Z,7.70
2019-02-05T05:39:33.953Z,7.37
2019-02-05T05:42:04.311Z,7.57
2019-02-05T05:44:36.258Z,7.00
2019-02-05T05:47:07.386Z,6.90
2019-02-05T05:49:38.010Z,7.57
2019-02-05T05:52:08.629Z,6.47
2019-02-05T05:54:41.947Z,7.77
2019-02-05T05:57:12.631Z,7.60
2019-02-05T05:59:42.897Z,7.43
2019-02-05T06:02:13.190Z,7.60
2019-02-05T06:04:43.745Z,6.93
2019-02-05T06:07:14.520Z,7.80
2019-02-05T06:09:45.097Z,7.30
2019-02-05T06:12:15.387Z,7.40
2019-02-05T06:14:45.972Z,8.53
2019-02-05T06:17:16.696Z,7.87
2019-02-05T06:19:47.395Z,7.67
2019-02-05T06:22:19.728Z,9.60
2019-02-05T06:24:50.505Z,8.30
2019-02-05T06:27:21.081Z,7.67
2019-02-05T06:29:52.112Z,7.60
2019-02-05T06:32:22.408Z,8.30
2019-02-05T06:34:54.582Z,7.50
2019-02-05T06:37:28.416Z,8.47
2019-02-05T06:39:58.711Z,8.90
2019-02-05T06:42:29.691Z,9.00
2019-02-05T06:45:00.336Z,7.90
2019-02-05T06:47:30.943Z,7.93
2019-02-05T06:50:01.566Z,8.27
2019-02-05T06:52:32.237Z,8.10
2019-02-05T06:55:02.826Z,8.30
2019-02-05T06:57:34.694Z,8.67
2019-02-05T07:00:09.908Z,8.03
2019-02-05T07:02:40.566Z,8.67
2019-02-05T07:05:12.031Z,8.13
2019-02-05T07:07:42.752Z,8.97
2019-02-05T07:10:24.710Z,8.63
2019-02-05T07:12:55.379Z,9.77
2019-02-05T07:15:26.096Z,8.87
2019-02-05T07:17:56.747Z,9.40
2019-02-05T07:20:27.370Z,8.40
2019-02-05T07:22:58.538Z,8.93
2019-02-05T07:25:29.150Z,9.07
2019-02-05T07:27:59.678Z,9.20
2019-02-05T07:30:29.999Z,9.33
2019-02-05T07:33:02.016Z,8.67
2019-02-05T07:35:32.832Z,9.13
2019-02-05T07:38:03.549Z,9.47
2019-02-05T07:40:34.307Z,8.63
2019-02-05T07:43:05.034Z,9.70
2019-02-05T07:45:35.644Z,9.63
2019-02-05T07:48:06.285Z,9.67
2019-02-05T07:50:38.341Z,11.33
2019-02-05T07:53:09.394Z,10.77
2019-02-05T07:55:40.015Z,11.37
2019-02-05T07:58:10.645Z,11.43
2019-02-05T08:00:41.392Z,10.37
2019-02-05T08:03:12.121Z,10.57
2019-02-05T08:05:42.746Z,10.60
2019-02-05T08:08:13.781Z,10.43
2019-02-05T08:10:44.428Z,10.17
2019-02-05T08:13:14.975Z,10.40
2019-02-05T08:15:45.410Z,10.57
2019-02-05T08:18:18.675Z,10.13
2019-02-05T08:20:49.471Z,10.90
2019-02-05T08:23:19.860Z,9.87
2019-02-05T08:25:52.002Z,10.40
2019-02-05T08:28:22.325Z,10.63
2019-02-05T08:30:52.987Z,10.27
2019-02-05T08:33:23.586Z,10.10
2019-02-05T08:35:54.257Z,10.60
2019-02-05T08:38:25.372Z,11.00
2019-02-05T08:40:56.307Z,11.20
2019-02-05T08:43:28.604Z,11.00
2019-02-05T08:45:59.221Z,10.93
2019-02-05T08:48:29.840Z,11.03
2019-02-05T08:51:00.571Z,10.70
2019-02-05T08:53:31.646Z,10.90
2019-02-05T08:56:02.333Z,10.87
2019-02-05T08:58:32.881Z,10.20
2019-02-05T09:01:03.740Z,11.20
2019-02-05T09:03:36.611Z,11.30
2019-02-05T09:06:06.992Z,11.07
2019-02-05T09:08:39.728Z,10.67
2019-02-05T09:11:10.451Z,10.50
2019-02-05T09:13:41.166Z,10.80
2019-02-05T09:16:11.947Z,11.10
2019-02-05T09:18:42.561Z,10.70
2019-02-05T09:21:13.199Z,10.03
2019-02-05T09:23:43.720Z,10.90
2019-02-05T09:26:14.343Z,10.30
2019-02-05T09:28:44.987Z,10.23
2019-02-05T09:31:18.370Z,10.73
2019-02-05T09:33:48.690Z,12.03
2019-02-05T09:36:19.841Z,11.47
2019-02-05T09:38:50.567Z,12.77
2019-02-05T09:41:21.202Z,11.73
2019-02-05T09:43:51.835Z,11.23
2019-02-05T09:46:24.102Z,11.53
2019-02-05T09:48:54.762Z,11.63
2019-02-05T09:51:25.880Z,11.23
2019-02-05T09:53:56.516Z,11.53
2019-02-05T09:56:30.937Z,11.70
2019-02-05T09:59:01.555Z,12.30
2019-02-05T10:01:32.280Z,12.50
2019-02-05T10:04:03.028Z,11.77
2019-02-05T10:06:33.841Z,11.20
2019-02-05T10:09:07.469Z,11.17
2019-02-05T10:11:38.208Z,10.90
2019-02-05T10:14:08.838Z,11.87
2019-02-05T10:16:39.473Z,11.07
2019-02-05T10:19:10.540Z,11.30
2019-02-05T10:21:41.251Z,11.17
2019-02-05T10:24:11.978Z,11.17
2019-02-05T10:26:42.601Z,12.17
2019-02-05T10:29:12.972Z,14.10
2019-02-05T10:31:46.103Z,10.87
2019-02-05T10:34:16.380Z,11.57
2019-02-05T10:36:47.153Z,11.87
2019-02-05T10:39:19.476Z,11.87
2019-02-05T10:41:50.181Z,11.80
2019-02-05T10:44:20.829Z,11.80
2019-02-05T10:46:51.240Z,12.00
2019-02-05T10:49:22.004Z,11.67
2019-02-05T10:51:52.447Z,11.73
2019-02-05T10:54:23.082Z,12.30
2019-02-05T10:56:53.777Z,11.93
2019-02-05T10:59:24.497Z,11.50
2019-02-05T11:01:55.467Z,12.60
2019-02-05T11:04:26.001Z,11.37
2019-02-05T11:06:56.734Z,11.00
2019-02-05T11:09:27.408Z,11.90
2019-02-05T11:11:58.104Z,11.77
2019-02-05T11:14:28.937Z,11.67
2019-02-05T11:17:00.135Z,11.90
2019-02-05T11:19:30.950Z,13.67
2019-02-05T11:22:02.201Z,11.90
2019-02-05T11:24:32.792Z,11.23
2019-02-05T11:27:03.413Z,12.50
2019-02-05T11:29:34.122Z,14.23
2019-02-05T11:32:05.279Z,12.03
2019-02-05T11:34:36.097Z,11.47
2019-02-05T11:37:06.740Z,11.70
2019-02-05T11:39:39.097Z,12.47
2019-02-05T11:42:09.752Z,11.83
2019-02-05T11:44:46.956Z,12.50
2019-02-05T11:47:18.710Z,11.83
2019-02-05T11:49:49.431Z,12.50
2019-02-05T11:52:20.058Z,12.40
2019-02-05T11:54:50.689Z,11.93
2019-02-05T11:57:21.326Z,11.97
2019-02-05T11:59:52.471Z,11.63
2019-02-05T12:02:23.199Z,12.40
2019-02-05T12:04:53.950Z,22.77
2019-02-05T12:07:24.238Z,14.93
2019-02-05T12:09:54.907Z,22.50
2019-02-05T12:12:25.626Z,12.37
2019-02-05T12:14:56.772Z,12.67
2019-02-05T12:17:27.462Z,12.90
2019-02-05T12:19:58.140Z,12.40
2019-02-05T12:22:28.875Z,11.63
2019-02-05T12:24:59.611Z,12.63
2019-02-05T12:27:30.062Z,12.07
2019-02-05T12:30:01.073Z,12.80
2019-02-05T12:32:31.704Z,12.40
2019-02-05T12:35:02.434Z,12.33
2019-02-05T12:37:33.207Z,12.23
2019-02-05T12:40:04.927Z,12.80
2019-02-05T12:42:37.213Z,12.97
2019-02-05T12:45:11.325Z,12.37
2019-02-05T12:47:41.941Z,12.57
2019-02-05T12:50:16.276Z,11.93
2019-02-05T12:52:47.061Z,12.60
2019-02-05T12:55:17.979Z,13.30
2019-02-05T12:57:48.284Z,14.00
2019-02-05T13:00:22.296Z,13.10
2019-02-05T13:02:55.306Z,13.27
2019-02-05T13:05:25.891Z,13.37
2019-02-05T13:07:56.194Z,13.07
2019-02-05T13:10:35.648Z,13.93
2019-02-05T13:13:10.893Z,13.13
2019-02-05T13:15:41.537Z,13.27
2019-02-05T13:18:12.266Z,12.53
2019-02-05T13:20:43.330Z,13.33
2019-02-05T13:23:13.942Z,12.87
2019-02-05T13:25:45.710Z,12.97
2019-02-05T13:28:16.428Z,13.47
2019-02-05T13:30:46.622Z,12.67
2019-02-05T13:33:17.884Z,13.33
2019-02-05T13:35:48.529Z,14.30
2019-02-05T13:38:19.099Z,13.10
2019-02-05T13:40:49.702Z,13.17
2019-02-05T13:43:20.412Z,13.73
2019-02-05T13:45:52.574Z,13.20
2019-02-05T13:48:23.109Z,13.73
2019-02-05T13:50:53.715Z,13.87
2019-02-05T13:53:24.287Z,13.17
2019-02-05T13:55:54.953Z,13.17
2019-02-05T13:58:26.761Z,13.63
2019-02-05T14:00:57.404Z,13.40
2019-02-05T14:03:27.965Z,13.50
2019-02-05T14:05:58.572Z,13.73
2019-02-05T14:08:29.522Z,13.20
2019-02-05T14:11:00.130Z,13.50
2019-02-05T14:13:30.914Z,13.10
2019-02-05T14:16:01.611Z,12.97
2019-02-05T14:18:32.822Z,12.57
2019-02-05T14:21:03.776Z,15.10
2019-02-05T14:23:34.428Z,13.33
2019-02-05T14:26:06.367Z,14.00
2019-02-05T14:28:37.135Z,18.23
2019-02-05T14:31:10.792Z,12.60
2019-02-05T14:33:40.748Z,12.67
2019-02-05T14:36:11.373Z,13.23
2019-02-05T14:38:42.723Z,13.10
2019-02-05T14:41:13.363Z,13.10
2019-02-05T14:43:43.983Z,13.47
2019-02-05T14:46:14.638Z,13.57
2019-02-05T14:48:45.351Z,13.13
2019-02-05T14:51:15.977Z,12.70
2019-02-05T14:53:46.918Z,13.43
2019-02-05T14:56:17.442Z,13.20
2019-02-05T14:58:48.077Z,13.23
2019-02-05T15:01:18.611Z,13.43
2019-02-05T15:03:49.256Z,12.50
2019-02-05T15:06:19.883Z,14.60
2019-02-05T15:08:50.527Z,14.90
2019-02-05T15:11:21.170Z,13.83
2019-02-05T15:13:52.967Z,13.43
2019-02-05T15:16:23.639Z,13.63
2019-02-05T15:18:54.259Z,13.97
2019-02-05T15:21:25.006Z,12.13
2019-02-05T15:23:55.724Z,13.17
2019-02-05T15:26:26.367Z,13.50
2019-02-05T15:28:57.103Z,13.10
2019-02-05T15:31:27.729Z,13.33
2019-02-05T15:34:00.301Z,13.00
2019-02-05T15:36:31.704Z,13.37
2019-02-05T15:39:02.604Z,13.57
2019-02-05T15:41:32.957Z,13.23
2019-02-05T15:44:03.699Z,13.40
2019-02-05T15:46:35.046Z,13.23
2019-02-05T15:49:05.765Z,13.17
2019-02-05T15:51:36.384Z,12.80
2019-02-05T15:54:07.103Z,13.90
2019-02-05T15:56:38.840Z,13.30
2019-02-05T15:59:09.818Z,14.53
2019-02-05T16:01:40.673Z,13.70
2019-02-05T16:04:11.371Z,13.90
2019-02-05T16:06:44.263Z,13.20
2019-02-05T16:09:15.006Z,14.07
2019-02-05T16:11:45.738Z,13.57
2019-02-05T16:14:16.456Z,15.00
2019-02-05T16:16:47.094Z,13.57
2019-02-05T16:19:17.419Z,14.17
2019-02-05T16:21:51.115Z,13.33
2019-02-05T16:24:23.055Z,14.20
2019-02-05T16:26:53.637Z,13.23
2019-02-05T16:29:24.344Z,13.43
2019-02-05T16:31:54.694Z,13.20
2019-02-05T16:34:25.594Z,14.23
2019-02-05T16:36:56.260Z,13.30
2019-02-05T16:39:27.280Z,15.10
2019-02-05T16:41:58.019Z,20.70
2019-02-05T16:44:28.340Z,15.07
2019-02-05T16:46:58.965Z,13.47
2019-02-05T16:49:29.610Z,13.63
2019-02-05T16:52:00.371Z,17.40
2019-02-05T16:54:31.072Z,14.10
2019-02-05T16:57:01.709Z,13.50
2019-02-05T16:59:32.463Z,13.50
2019-02-05T17:02:03.089Z,15.00
2019-02-05T17:04:33.946Z,13.90
2019-02-05T17:07:04.869Z,14.77
2019-02-05T17:09:35.507Z,13.47
2019-02-05T17:12:06.101Z,14.13
2019-02-05T17:14:36.637Z,13.27
2019-02-05T17:17:07.365Z,14.30
2019-02-05T17:19:38.122Z,13.83
2019-02-05T17:22:08.393Z,14.23
2019-02-05T17:24:39.046Z,14.03
2019-02-05T17:27:09.708Z,13.33
2019-02-05T17:29:40.341Z,12.93
2019-02-05T17:32:11.066Z,12.67
2019-02-05T17:34:41.908Z,12.70
2019-02-05T17:37:12.528Z,12.70
2019-02-05T17:39:42.917Z,12.30
2019-02-05T17:42:13.636Z,12.83
2019-02-05T17:44:45.931Z,12.73
2019-02-05T17:47:16.639Z,13.57
2019-02-05T17:49:47.213Z,13.40
2019-02-05T17:52:17.458Z,14.27
2019-02-05T17:54:48.163Z,16.53
2019-02-05T17:57:18.950Z,12.83
2019-02-05T17:59:49.767Z,12.87
2019-02-05T18:02:20.480Z,12.77
2019-02-05T18:04:51.556Z,12.87
2019-02-05T18:07:22.215Z,13.43
2019-02-05T18:09:54.443Z,13.37
2019-02-05T18:12:24.803Z,12.77
2019-02-05T18:14:57.808Z,13.33
2019-02-05T18:17:28.467Z,15.23
2019-02-05T18:19:59.071Z,13.20
2019-02-05T18:22:29.645Z,13.10
2019-02-05T18:25:00.474Z,12.20
2019-02-05T18:27:31.545Z,12.80
2019-02-05T18:30:02.350Z,13.67
2019-02-05T18:32:33.013Z,12.53
2019-02-05T18:35:03.493Z,12.87
2019-02-05T18:37:34.156Z,11.67
2019-02-05T18:40:08.679Z,12.70
2019-02-05T18:42:39.488Z,12.90
2019-02-05T18:45:13.244Z,13.07
2019-02-05T18:47:43.954Z,12.90
2019-02-05T18:50:24.024Z,12.07
2019-02-05T18:52:55.135Z,12.63
2019-02-05T18:55:28.670Z,12.13
2019-02-05T18:58:08.920Z,11.90
2019-02-05T19:00:33.805Z,12.30
2019-02-05T19:03:14.844Z,11.10
2019-02-05T19:05:38.786Z,11.73
2019-02-05T19:08:09.899Z,11.70
2019-02-05T19:10:40.803Z,11.43
2019-02-05T19:13:11.917Z,12.13
2019-02-05T19:15:42.218Z,12.50
2019-02-05T19:18:12.964Z,11.87
2019-02-05T19:20:43.813Z,19.60
2019-02-05T19:23:14.135Z,14.43
2019-02-05T19:25:49.641Z,15.17
2019-02-05T19:28:21.946Z,12.23
2019-02-05T19:30:54.468Z,13.37
2019-02-05T19:33:27.357Z,13.03
2019-02-05T19:35:57.388Z,13.13
2019-02-05T19:38:28.140Z,13.10
2019-02-05T19:40:58.637Z,12.57
2019-02-05T19:43:30.989Z,13.07
2019-02-05T19:46:21.662Z,11.87
2019-02-05T19:48:54.127Z,13.33
2019-02-05T19:51:24.832Z,12.50
2019-02-05T19:53:57.507Z,13.17
2019-02-05T19:56:37.858Z,12.77
2019-02-05T19:59:00.750Z,12.20
2019-02-05T20:01:31.471Z,12.80
2019-02-05T20:04:02.212Z,12.30
2019-02-05T20:06:32.932Z,12.37
2019-02-05T20:09:05.516Z,13.30
2019-02-05T20:11:37.907Z,12.70
2019-02-05T20:14:08.568Z,11.90
2019-02-05T20:16:39.235Z,13.13
2019-02-05T20:19:10.176Z,11.67
2019-02-05T20:21:41.457Z,12.90
2019-02-05T20:24:11.852Z,12.17
2019-02-05T20:26:42.519Z,12.97
2019-02-05T20:29:12.927Z,12.53
2019-02-05T20:31:43.716Z,12.20
2019-02-05T20:34:14.555Z,11.87
2019-02-05T20:36:45.741Z,11.77
2019-02-05T20:39:16.515Z,12.63
2019-02-05T20:41:47.205Z,12.67
2019-02-05T20:44:17.970Z,12.37
2019-02-05T20:46:49.296Z,12.80
2019-02-05T20:49:20.059Z,12.33
2019-02-05T20:51:50.760Z,11.67
2019-02-05T20:54:21.537Z,12.03
2019-02-05T20:56:52.244Z,12.50
2019-02-05T20:59:22.962Z,12.63
2019-02-05T21:01:56.098Z,13.00
2019-02-05T21:04:26.086Z,11.97
2019-02-05T21:06:59.611Z,12.47
2019-02-05T21:09:29.104Z,12.63
2019-02-05T21:11:59.532Z,11.87
2019-02-05T21:14:30.658Z,13.43
2019-02-05T21:17:01.442Z,12.63
2019-02-05T21:19:32.440Z,13.70
2019-02-05T21:22:03.237Z,18.33
2019-02-05T21:24:35.492Z,18.37
2019-02-05T21:27:06.157Z,14.43
2019-02-05T21:29:36.892Z,13.27
2019-02-05T21:32:07.639Z,13.63
2019-02-05T21:34:38.426Z,13.77
2019-02-05T21:37:09.214Z,13.20
2019-02-05T21:39:39.835Z,13.37
2019-02-05T21:42:10.563Z,13.97
2019-02-05T21:44:41.293Z,14.10
2019-02-05T21:47:12.471Z,13.53
2019-02-05T21:49:43.174Z,12.63
2019-02-05T21:52:13.926Z,14.43
2019-02-05T21:54:44.596Z,12.70
2019-02-05T21:57:15.365Z,12.97
2019-02-05T21:59:46.215Z,13.77
2019-02-05T22:02:16.908Z,13.17
2019-02-05T22:04:47.692Z,13.80
2019-02-05T22:07:18.412Z,14.27
2019-02-05T22:09:49.166Z,13.57
2019-02-05T22:12:19.908Z,14.00
2019-02-05T22:14:50.727Z,15.80
2019-02-05T22:17:21.545Z,14.43
2019-02-05T22:19:52.280Z,13.93
2019-02-05T22:22:23.035Z,13.37
2019-02-05T22:24:53.413Z,13.70
2019-02-05T22:27:24.174Z,13.80
2019-02-05T22:29:54.952Z,13.00
2019-02-05T22:32:26.753Z,14.00
2019-02-05T22:34:57.407Z,13.57
2019-02-05T22:37:28.137Z,13.83
2019-02-05T22:39:58.768Z,13.63
2019-02-05T22:42:29.007Z,13.87
2019-02-05T22:45:00.222Z,14.23
2019-02-05T22:47:30.885Z,13.80
2019-02-05T22:50:01.495Z,14.63
2019-02-05T22:52:32.135Z,14.03
2019-02-05T22:55:03.375Z,14.57
2019-02-05T22:57:34.007Z,13.50
2019-02-05T23:00:08.041Z,13.63
2019-02-05T23:02:39.179Z,14.07
2019-02-05T23:05:15.670Z,13.57
2019-02-05T23:07:46.675Z,13.77
2019-02-05T23:10:20.584Z,14.20
2019-02-05T23:12:51.346Z,13.80
2019-02-05T23:15:22.045Z,14.53
2019-02-05T23:17:52.677Z,13.63
2019-02-05T23:20:23.323Z,13.73
2019-02-05T23:22:56.950Z,13.33
2019-02-05T23:25:26.830Z,13.63
2019-02-05T23:27:57.594Z,12.93
2019-02-05T23:30:28.324Z,13.63
2019-02-05T23:32:59.044Z,14.90
2019-02-05T23:35:32.508Z,13.37
2019-02-05T23:38:01.970Z,13.87
2019-02-05T23:40:32.565Z,13.63
2019-02-05T23:43:03.090Z,13.70
2019-02-05T23:45:33.719Z,12.63
2019-02-05T23:48:04.494Z,12.87
2019-02-05T23:50:35.116Z,13.57
2019-02-05T23:53:05.817Z,13.40
2019-02-05T23:55:36.440Z,12.97
2019-02-05T23:58:06.746Z,13.97
